Time;durP1;ratioP1;P1;durP2;ratioP2;P2;SDS_P1;SDS_P2;PMS_P1;PMS_P2;Temp;Humidity;BMP_temperature;BMP_pressure;BME280_temperature;BME280_humidity;BME280_pressure;Samples;Min_cycle;Max_cycle;Signal;HPM_P1;HPM_P2
2022/09/07 00:00:09;;;;;;;850.03;795.72;;;;;;;19.68;55.79;100112.38;311786;31;3468;-77
2022/09/07 00:00:19;;;;;;;847.63;793.42;;;;;;;19.69;55.57;100106.09;310357;31;2973;-77
2022/09/07 00:00:30;;;;;;;843.90;789.80;;;;;;;19.72;55.35;100113.84;312578;31;1393;-77
2022/09/07 00:00:40;;;;;;;841.63;787.55;;;;;;;19.74;55.56;100112.78;311536;31;3806;-77
2022/09/07 00:00:51;;;;;;;844.63;790.23;;;;;;;19.76;55.51;100115.34;310425;31;4816;-77
2022/09/07 00:01:02;;;;;;;848.28;793.60;;;;;;;19.78;55.47;100110.75;307881;32;1252;-77
2022/09/07 00:01:12;;;;;;;846.20;791.60;;;;;;;19.80;55.19;100108.84;309575;31;5778;-77
2022/09/07 00:01:22;;;;;;;840.77;786.50;;;;;;;19.84;55.54;100118.31;308328;31;6353;-77
2022/09/07 00:01:33;;;;;;;843.40;789.13;;;;;;;19.86;55.08;100113.72;308534;31;6960;-77
2022/09/07 00:01:43;;;;;;;847.20;792.83;;;;;;;19.87;55.47;100108.31;308333;32;1524;-77
2022/09/07 00:01:54;;;;;;;849.37;795.07;;;;;;;19.89;55.57;100113.50;306274;31;5623;-77
2022/09/07 00:02:04;;;;;;;848.80;794.42;;;;;;;19.90;55.37;100112.56;304107;32;6004;-77
2022/09/07 00:02:14;;;;;;;847.40;793.07;;;;;;;19.91;55.63;100109.78;306322;32;627;-77
2022/09/07 00:02:25;;;;;;;852.47;797.97;;;;;;;19.92;55.61;100110.63;302586;32;4929;-77
2022/09/07 00:02:35;;;;;;;854.17;799.80;;;;;;;19.95;55.21;100110.38;299860;32;4755;-77
2022/09/07 00:02:46;;;;;;;847.35;793.05;;;;;;;19.96;55.50;100114.75;296321;33;906;-77
2022/09/07 00:02:56;;;;;;;842.60;788.30;;;;;;;19.97;55.21;100108.47;295332;33;6286;-77
2022/09/07 00:03:06;;;;;;;836.87;782.70;;;;;;;19.98;55.33;100110.16;296793;32;7952;-77
2022/09/07 00:03:17;;;;;;;844.17;789.95;;;;;;;20.00;55.36;100113.56;295914;33;4788;-77
2022/09/07 00:03:28;;;;;;;838.13;784.33;;;;;;;20.00;55.17;100107.41;290039;34;2957;-77
2022/09/07 00:03:38;;;;;;;832.77;778.87;;;;;;;20.00;55.58;100105.59;287212;34;8211;-77
2022/09/07 00:03:48;;;;;;;822.58;768.97;;;;;;;20.00;55.50;100108.25;283537;34;9551;-77
2022/09/07 00:03:59;;;;;;;821.10;767.57;;;;;;;20.00;55.43;100102.94;284245;34;3159;-77
2022/09/07 00:04:10;;;;;;;823.90;770.50;;;;;;;20.01;55.18;100114.41;282001;34;7528;-77
2022/09/07 00:06:07;;;;;;;765.91;714.33;;;;;;;20.03;55.49;100117.81;2491902;27;20906;-77
2022/09/07 00:06:17;;;;;;;815.80;762.58;;;;;;;20.03;55.05;100112.50;353082;28;1837;-77
2022/09/07 00:06:28;;;;;;;806.45;753.50;;;;;;;20.03;55.42;100102.72;351663;28;1272;-77
2022/09/07 00:06:38;;;;;;;821.07;767.67;;;;;;;20.04;55.66;100107.06;350257;28;866;-77
2022/09/07 00:06:49;;;;;;;828.35;774.85;;;;;;;20.04;55.52;100104.41;347270;28;1370;-77
2022/09/07 00:06:59;;;;;;;830.77;777.03;;;;;;;20.05;55.21;100103.47;347417;28;1447;-77
2022/09/07 00:07:09;;;;;;;828.22;774.55;;;;;;;20.07;55.33;100106.00;344626;28;1293;-77
2022/09/07 00:07:20;;;;;;;830.20;776.33;;;;;;;20.09;55.28;100109.41;347342;28;1224;-77
2022/09/07 00:07:30;;;;;;;833.03;779.20;;;;;;;20.08;55.24;100105.91;346109;28;901;-77
2022/09/07 00:07:41;;;;;;;834.97;781.10;;;;;;;20.09;55.01;100107.59;345940;28;1215;-77
2022/09/07 00:07:51;;;;;;;834.27;780.30;;;;;;;20.11;55.07;100104.81;345816;28;1594;-77
2022/09/07 00:08:01;;;;;;;831.40;777.45;;;;;;;20.11;55.11;100104.81;347279;28;1321;-77
2022/09/07 00:08:12;;;;;;;828.63;774.70;;;;;;;20.10;55.04;100103.13;348072;28;1507;-77
2022/09/07 00:08:24;;;;;;;822.65;769.13;;;;;;;20.11;55.22;100108.34;347535;28;1321;-77
2022/09/07 00:08:35;;;;;;;823.20;769.75;;;;;;;20.11;55.01;100113.66;346929;28;1559;-77
2022/09/07 00:08:45;;;;;;;821.53;768.17;;;;;;;20.11;55.05;100099.50;346835;28;1336;-77
2022/09/07 00:08:55;;;;;;;826.90;773.40;;;;;;;20.13;54.96;100108.22;346172;28;844;-77
2022/09/07 00:09:06;;;;;;;822.60;769.13;;;;;;;20.12;54.75;100104.72;346263;28;1202;-77
2022/09/07 00:09:16;;;;;;;825.72;772.25;;;;;;;20.12;55.06;100103.88;348718;28;1219;-77
2022/09/07 00:09:27;;;;;;;825.47;772.10;;;;;;;20.12;54.74;100104.72;347354;28;1147;-78
2022/09/07 00:09:38;;;;;;;836.20;782.58;;;;;;;20.14;55.02;100105.44;346031;28;1765;-78
2022/09/07 00:09:50;;;;;;;833.80;780.13;;;;;;;20.14;54.90;100108.13;347175;28;1354;-77
2022/09/07 00:10:00;;;;;;;833.10;779.47;;;;;;;20.14;54.90;100110.78;349651;28;1304;-77
2022/09/07 00:10:11;;;;;;;832.97;779.37;;;;;;;20.13;54.85;100101.09;346035;28;890;-77
2022/09/07 00:10:22;;;;;;;829.13;775.63;;;;;;;20.15;54.76;100112.47;348545;28;913;-77
2022/09/07 00:10:32;;;;;;;829.92;776.35;;;;;;;20.14;54.64;100113.44;346061;28;817;-77
2022/09/07 00:11:16;;;;;;;830.87;777.27;;;;;;;20.16;54.56;100108.00;344446;28;1352;-77
2022/09/07 00:11:26;;;;;;;830.88;777.45;;;;;;;20.16;55.01;100108.00;340442;28;1240;-77
2022/09/07 00:11:37;;;;;;;828.70;775.30;;;;;;;20.14;54.93;100116.09;344545;28;1436;-77
2022/09/07 00:11:47;;;;;;;834.92;781.13;;;;;;;20.13;54.86;100109.06;343158;28;1322;-77
2022/09/07 00:11:57;;;;;;;837.77;783.77;;;;;;;20.15;54.76;100111.63;345765;28;1334;-77
2022/09/07 00:12:08;;;;;;;833.63;779.58;;;;;;;20.13;54.63;100111.72;344679;28;1311;-77
2022/09/07 00:12:19;;;;;;;826.45;772.80;;;;;;;20.11;54.66;100110.13;346090;28;888;-76
2022/09/07 00:12:29;;;;;;;823.43;769.93;;;;;;;20.11;54.55;100108.34;338149;28;4956;-77
2022/09/07 00:12:39;;;;;;;826.13;772.60;;;;;;;20.11;54.95;100111.00;338750;28;1849;-77
2022/09/07 00:12:50;;;;;;;823.73;769.93;;;;;;;20.10;54.79;100109.28;340680;28;1743;-76
2022/09/07 00:13:00;;;;;;;823.53;769.70;;;;;;;20.11;54.86;100105.69;345545;28;1819;-76
2022/09/07 00:13:11;;;;;;;828.22;774.30;;;;;;;20.11;54.84;100105.69;345788;28;3173;-76
2022/09/07 00:13:22;;;;;;;826.67;773.07;;;;;;;20.11;54.93;100111.00;345573;28;1631;-76
2022/09/07 00:13:34;;;;;;;828.03;774.40;;;;;;;20.11;54.82;100108.34;342089;28;876;-77
2022/09/07 00:13:45;;;;;;;828.05;774.45;;;;;;;20.12;55.08;100110.03;343064;28;1289;-76
2022/09/07 00:13:56;;;;;;;827.65;774.08;;;;;;;20.12;55.01;100107.38;343177;28;1297;-75
2022/09/07 00:14:06;;;;;;;823.00;769.63;;;;;;;20.11;54.71;100111.00;341997;28;1236;-77
2022/09/07 00:14:17;;;;;;;824.45;771.00;;;;;;;20.11;54.96;100112.78;337693;29;1160;-77
2022/09/07 00:14:27;;;;;;;819.90;766.60;;;;;;;20.11;54.84;100110.13;338677;29;1182;-77
2022/09/07 00:14:38;;;;;;;823.30;770.08;;;;;;;20.10;55.32;100103.97;340761;28;1152;-78
2022/09/07 00:14:48;;;;;;;825.40;772.00;;;;;;;20.09;55.43;100112.91;342029;28;885;-77
2022/09/07 00:14:58;;;;;;;830.33;776.75;;;;;;;20.09;55.16;100106.75;340975;28;1914;-77
2022/09/07 00:15:10;;;;;;;827.53;774.03;;;;;;;20.09;55.01;100114.72;339578;29;1371;-77
2022/09/07 00:15:20;;;;;;;825.72;772.30;;;;;;;20.07;55.27;100104.19;341986;28;1334;-77
2022/09/07 00:15:31;;;;;;;828.63;775.03;;;;;;;20.08;55.35;100111.22;344613;28;1303;-77
2022/09/07 00:15:41;;;;;;;829.45;775.70;;;;;;;20.10;55.27;100108.44;343112;28;1279;-76
2022/09/07 00:15:52;;;;;;;832.27;778.57;;;;;;;20.10;55.07;100109.28;340374;29;1569;-77
2022/09/07 00:16:06;;;;;;;826.00;772.65;;;;;;;20.10;55.14;100108.44;334227;29;1219;-77
2022/09/07 00:16:27;;;;;;;821.83;768.70;;;;;;;20.10;54.96;100109.28;335430;29;1365;-77
2022/09/07 00:16:38;;;;;;;825.85;772.22;;;;;;;20.11;55.18;100105.69;335448;29;1340;-76
2022/09/07 00:16:48;;;;;;;837.03;783.23;;;;;;;20.12;54.94;100111.84;336761;29;1519;-76
2022/09/07 00:16:59;;;;;;;840.37;786.50;;;;;;;20.13;55.52;100111.72;335310;29;1692;-76
2022/09/07 00:17:09;;;;;;;838.13;784.35;;;;;;;20.13;55.08;100110.88;334549;29;1465;-77
2022/09/07 00:17:19;;;;;;;835.83;781.87;;;;;;;20.13;55.12;100114.38;336788;29;854;-77
2022/09/07 00:17:30;;;;;;;827.72;773.95;;;;;;;20.13;55.23;100111.72;335575;29;1256;-77
2022/09/07 00:17:40;;;;;;;829.77;775.93;;;;;;;20.12;55.06;100106.53;333036;29;1294;-77
2022/09/07 00:17:51;;;;;;;830.53;776.78;;;;;;;20.12;55.38;100112.69;331617;29;1357;-77
2022/09/07 00:18:01;;;;;;;836.90;782.90;;;;;;;20.13;55.30;100109.06;331218;29;2148;-77
2022/09/07 00:18:12;;;;;;;836.42;782.47;;;;;;;20.11;55.33;100105.69;329395;29;2235;-77
2022/09/07 00:18:22;;;;;;;832.23;778.37;;;;;;;20.12;55.41;100111.84;325980;29;2183;-77
2022/09/07 00:18:33;;;;;;;829.22;775.47;;;;;;;20.12;55.53;100102.06;326686;30;1296;-77
2022/09/07 00:18:43;;;;;;;825.67;772.03;;;;;;;20.13;55.56;100111.72;326040;30;2394;-77
2022/09/07 00:18:55;;;;;;;826.03;772.50;;;;;;;20.14;55.29;100109.91;324859;30;2373;-77
2022/09/07 00:19:05;;;;;;;836.75;782.75;;;;;;;20.13;55.28;100109.06;322790;30;1501;-77
2022/09/07 00:19:15;;;;;;;836.20;782.23;;;;;;;20.14;55.47;100118.75;321823;30;2269;-76
2022/09/07 00:19:26;;;;;;;836.95;782.95;;;;;;;20.14;55.49;100115.25;322910;30;1524;-76
2022/09/07 00:19:36;;;;;;;827.90;774.27;;;;;;;20.13;55.54;100117.03;325921;30;868;-76
2022/09/07 00:19:47;;;;;;;833.45;779.78;;;;;;;20.13;55.51;100109.06;323932;30;1446;-76
2022/09/07 00:19:57;;;;;;;828.70;775.13;;;;;;;20.13;55.35;100114.38;321385;30;2234;-76
2022/09/07 00:20:08;;;;;;;835.72;781.95;;;;;;;20.14;55.35;100109.91;319375;30;2679;-76
2022/09/07 00:20:19;;;;;;;835.95;782.20;;;;;;;20.15;55.48;100111.63;323207;30;762;-76
2022/09/07 00:20:29;;;;;;;841.13;787.23;;;;;;;20.14;55.52;100116.09;323247;30;3114;-76
2022/09/07 00:20:39;;;;;;;839.55;785.67;;;;;;;20.14;55.39;100116.09;320693;30;3056;-76
2022/09/07 00:20:59;;;;;;;849.07;794.90;;;;;;;20.14;55.45;100110.78;317390;31;874;-76
2022/09/07 00:21:10;;;;;;;840.92;787.10;;;;;;;20.15;55.38;100112.47;319583;30;3061;-76
2022/09/07 00:21:20;;;;;;;837.67;783.90;;;;;;;20.16;55.32;100114.16;319538;30;1316;-76
2022/09/07 00:21:31;;;;;;;841.60;787.60;;;;;;;20.17;55.65;100115.88;319193;30;2827;-76
2022/09/07 00:21:41;;;;;;;838.90;784.97;;;;;;;20.16;55.28;100116.81;313247;30;4953;-76
2022/09/07 00:21:52;;;;;;;839.33;785.37;;;;;;;20.16;55.38;100113.31;315862;31;2161;-76
2022/09/07 00:22:02;;;;;;;840.78;786.45;;;;;;;20.16;55.40;100114.16;312710;31;1260;-76
2022/09/07 00:22:12;;;;;;;845.77;791.20;;;;;;;20.16;55.46;100118.63;314445;31;3188;-76
2022/09/07 00:22:23;;;;;;;840.80;786.40;;;;;;;20.16;55.50;100115.97;315235;31;3611;-76
2022/09/07 00:22:33;;;;;;;837.95;784.00;;;;;;;20.16;55.79;100113.31;314994;31;1350;-76
2022/09/07 00:22:45;;;;;;;831.80;778.07;;;;;;;20.15;55.50;100114.28;314306;31;4079;-76
2022/09/07 00:22:55;;;;;;;833.63;779.83;;;;;;;20.14;55.58;100116.09;313970;31;4501;-76
2022/09/07 00:23:06;;;;;;;832.73;778.87;;;;;;;20.12;55.53;100112.69;310576;31;1271;-76
2022/09/07 00:23:16;;;;;;;831.67;777.85;;;;;;;20.14;55.78;100121.41;305892;31;5470;-76
2022/09/07 00:23:27;;;;;;;834.23;780.23;;;;;;;20.15;55.74;100123.09;306934;31;4135;-76
2022/09/07 00:23:38;;;;;;;831.13;777.35;;;;;;;20.14;55.71;100120.56;309869;31;4024;-76
2022/09/07 00:23:49;;;;;;;827.92;774.38;;;;;;;20.14;55.88;100121.41;309323;31;1384;-76
2022/09/07 00:23:59;;;;;;;831.97;778.30;;;;;;;20.15;55.92;100116.94;307645;31;2584;-76
2022/09/07 00:24:10;;;;;;;835.28;781.53;;;;;;;20.14;55.66;100121.41;306646;31;3416;-76
2022/09/07 00:24:20;;;;;;;839.37;785.47;;;;;;;20.11;55.81;100116.31;310106;31;1326;-76
2022/09/07 00:24:30;;;;;;;844.45;790.38;;;;;;;20.11;55.86;100113.66;307692;31;4495;-76
2022/09/07 00:24:41;;;;;;;846.27;792.10;;;;;;;20.12;55.81;100117.16;304011;32;5502;-76
2022/09/07 00:24:51;;;;;;;850.33;796.10;;;;;;;20.10;55.94;100114.59;304182;32;1351;-76
2022/09/07 00:25:02;;;;;;;843.80;789.72;;;;;;;20.09;56.01;100112.91;298660;32;5989;-76
2022/09/07 00:25:12;;;;;;;842.60;788.67;;;;;;;20.08;55.67;100121.84;300052;32;6224;-76
2022/09/07 00:25:23;;;;;;;844.40;790.38;;;;;;;20.09;55.86;100112.06;300914;32;6867;-76
2022/09/07 00:25:39;;;;;;;847.87;793.80;;;;;;;20.09;55.72;100112.06;302113;32;1247;-76
2022/09/07 00:25:50;;;;;;;839.65;785.80;;;;;;;20.08;56.20;100119.19;297869;33;1399;-76
2022/09/07 00:26:08;;;;;;;837.97;784.20;;;;;;;20.08;55.71;100118.34;294365;33;5408;-76
2022/09/07 00:26:20;;;;;;;843.95;789.88;;;;;;;20.06;56.08;100118.44;291102;34;793;-76
2022/09/07 00:26:30;;;;;;;841.80;787.78;;;;;;;20.07;56.12;100119.28;291696;33;5509;-76
2022/09/07 00:26:41;;;;;;;839.70;785.70;;;;;;;20.07;56.13;100117.47;288895;33;6439;-76
2022/09/07 00:26:53;;;;;;;841.63;787.67;;;;;;;20.07;56.05;100117.47;286206;34;1269;-76
2022/09/07 00:27:04;;;;;;;840.58;786.72;;;;;;;20.08;56.13;100111.22;283595;34;1217;-76
2022/09/07 00:27:14;;;;;;;842.28;788.25;;;;;;;20.09;56.13;100112.06;285085;34;9154;-76
2022/09/07 00:27:25;;;;;;;843.53;789.57;;;;;;;20.10;56.05;100113.75;283895;34;8443;-76
2022/09/07 00:27:35;;;;;;;845.30;791.20;;;;;;;20.10;55.93;100114.59;282802;35;837;-76
2022/09/07 00:27:46;;;;;;;849.40;795.17;;;;;;;20.09;55.86;100112.91;275167;35;10581;-76
2022/09/07 00:29:35;;;;;;;731.73;681.00;;;;;;;20.05;56.21;100119.41;2491641;27;20280;-76
2022/09/07 00:29:45;;;;;;;815.23;762.03;;;;;;;20.04;56.42;100120.38;354376;27;1248;-76
2022/09/07 00:29:55;;;;;;;820.22;767.00;;;;;;;20.03;56.27;100123.97;351481;28;1206;-76
2022/09/07 00:30:06;;;;;;;816.10;762.90;;;;;;;20.04;56.36;100117.69;350637;28;1260;-76
2022/09/07 00:30:16;;;;;;;824.20;770.72;;;;;;;20.05;56.07;100116.75;347405;28;1324;-76
2022/09/07 00:30:27;;;;;;;826.57;773.00;;;;;;;20.06;56.33;100117.59;348258;28;1243;-76
2022/09/07 00:30:41;;;;;;;831.58;777.97;;;;;;;20.05;56.19;100115.91;347529;28;816;-76
2022/09/07 00:30:51;;;;;;;828.40;775.03;;;;;;;20.05;56.29;100119.41;344501;28;4724;-76
2022/09/07 00:31:02;;;;;;;834.97;781.40;;;;;;;20.04;56.24;100117.69;345994;28;2952;-77
2022/09/07 00:31:18;;;;;;;843.05;789.00;;;;;;;20.04;56.27;100120.38;347121;28;2035;-77
2022/09/07 00:31:29;;;;;;;836.13;781.92;;;;;;;20.03;55.79;100112.50;346845;28;2794;-76
2022/09/07 00:31:39;;;;;;;830.97;777.05;;;;;;;20.04;56.29;100116.84;349939;28;1209;-76
2022/09/07 00:31:50;;;;;;;826.50;772.90;;;;;;;20.04;56.53;100114.19;347429;28;1260;-76
2022/09/07 00:32:00;;;;;;;830.03;776.47;;;;;;;20.05;56.31;100122.06;347240;28;1228;-76
2022/09/07 00:32:11;;;;;;;833.83;780.07;;;;;;;20.05;56.34;100116.75;348832;28;876;-76
2022/09/07 00:32:21;;;;;;;839.20;785.33;;;;;;;20.05;56.34;100116.75;347337;28;1667;-76
2022/09/07 00:32:32;;;;;;;836.67;782.90;;;;;;;20.05;56.24;100119.41;344683;28;1288;-76
2022/09/07 00:32:42;;;;;;;831.88;778.17;;;;;;;20.04;56.30;100117.69;346537;28;1257;-76
2022/09/07 00:32:52;;;;;;;832.33;778.53;;;;;;;20.05;56.54;100123.88;344748;28;853;-76
2022/09/07 00:33:03;;;;;;;832.47;778.67;;;;;;;20.04;56.33;100120.38;344363;28;886;-76
2022/09/07 00:33:13;;;;;;;839.03;785.10;;;;;;;20.04;56.33;100120.38;346086;28;1532;-76
2022/09/07 00:33:24;;;;;;;832.37;778.47;;;;;;;20.04;56.33;100120.38;347091;28;1509;-76
2022/09/07 00:33:34;;;;;;;837.35;783.17;;;;;;;20.05;56.35;100121.22;343834;28;1223;-76
2022/09/07 00:33:45;;;;;;;834.80;780.67;;;;;;;20.05;56.35;100116.75;343784;28;1196;-76
2022/09/07 00:33:59;;;;;;;840.50;786.35;;;;;;;20.05;56.12;100116.75;344656;28;1013;-76
2022/09/07 00:34:09;;;;;;;849.80;795.50;;;;;;;20.05;56.10;100119.41;344680;28;1440;-76
2022/09/07 00:34:20;;;;;;;846.13;792.08;;;;;;;20.06;56.25;100122.91;345814;28;1342;-76
2022/09/07 00:34:30;;;;;;;844.53;790.43;;;;;;;20.07;56.17;100117.47;343884;28;1211;-76
2022/09/07 00:34:41;;;;;;;839.38;785.42;;;;;;;20.06;55.98;100113.13;347323;28;1343;-76
2022/09/07 00:34:51;;;;;;;844.40;790.33;;;;;;;20.07;56.46;100116.63;347418;28;1297;-76
2022/09/07 00:35:02;;;;;;;850.05;795.85;;;;;;;20.07;56.29;100120.13;344631;28;1239;-76
2022/09/07 00:35:12;;;;;;;848.63;794.40;;;;;;;20.06;56.40;100117.59;345158;28;846;-76
2022/09/07 00:35:22;;;;;;;849.08;794.80;;;;;;;20.06;56.27;100121.09;345092;28;1164;-76
2022/09/07 00:35:37;;;;;;;845.03;791.03;;;;;;;20.06;56.31;100121.09;345860;28;1075;-76
2022/09/07 00:35:48;;;;;;;843.58;789.67;;;;;;;20.07;56.36;100122.81;348047;28;1182;-76
2022/09/07 00:35:58;;;;;;;844.78;790.83;;;;;;;20.06;56.67;100120.25;347924;28;1216;-76
2022/09/07 00:36:09;;;;;;;846.03;792.13;;;;;;;20.04;56.71;100120.38;347162;28;1265;-76
2022/09/07 00:36:20;;;;;;;840.77;786.93;;;;;;;20.04;56.62;100123.03;348850;28;898;-76
2022/09/07 00:36:30;;;;;;;838.00;784.20;;;;;;;20.06;56.53;100122.91;344569;28;1263;-76
2022/09/07 00:36:40;;;;;;;842.40;788.45;;;;;;;20.06;56.67;100123.75;345950;28;1311;-76
2022/09/07 00:36:51;;;;;;;844.13;790.17;;;;;;;20.06;56.63;100122.91;343353;28;1298;-76
2022/09/07 00:37:01;;;;;;;845.50;791.50;;;;;;;20.07;56.53;100124.59;344283;28;1247;-76
2022/09/07 00:37:12;;;;;;;843.73;789.83;;;;;;;20.06;56.71;100123.75;346414;28;1049;-76
2022/09/07 00:37:22;;;;;;;845.03;791.13;;;;;;;20.04;56.45;100123.03;347388;28;1297;-76
2022/09/07 00:37:32;;;;;;;847.13;793.15;;;;;;;20.04;56.67;100125.69;344456;28;1426;-76
2022/09/07 00:37:43;;;;;;;853.63;799.43;;;;;;;20.04;56.48;100123.03;346274;28;1229;-76
2022/09/07 00:37:53;;;;;;;855.72;801.38;;;;;;;20.04;56.65;100125.69;344928;28;944;-76
2022/09/07 00:38:03;;;;;;;855.17;800.77;;;;;;;20.04;56.75;100122.16;341029;29;1142;-76
2022/09/07 00:38:14;;;;;;;846.08;791.83;;;;;;;20.01;56.61;100125.91;339928;29;1684;-76
2022/09/07 00:38:24;;;;;;;843.27;788.93;;;;;;;20.02;56.73;100121.44;333955;29;1915;-76
2022/09/07 00:38:35;;;;;;;845.40;791.10;;;;;;;20.02;56.68;100119.63;334289;29;815;-76
2022/09/07 00:38:45;;;;;;;848.88;794.53;;;;;;;20.02;56.86;100127.59;332737;29;1220;-76
2022/09/07 00:38:57;;;;;;;847.53;793.23;;;;;;;20.03;56.67;100123.13;336992;29;1375;-76
2022/09/07 00:39:07;;;;;;;840.72;786.53;;;;;;;20.02;56.74;100119.63;336767;29;1377;-76
2022/09/07 00:39:17;;;;;;;838.33;784.27;;;;;;;20.03;56.68;100118.66;330423;29;1221;-76
2022/09/07 00:39:28;;;;;;;836.22;782.30;;;;;;;20.04;56.90;100122.16;329881;29;1373;-76
2022/09/07 00:39:38;;;;;;;836.80;782.73;;;;;;;20.03;56.63;100123.13;325265;30;1739;-76
2022/09/07 00:39:49;;;;;;;841.75;787.60;;;;;;;20.03;56.94;100123.97;325416;30;1537;-76
2022/09/07 00:40:00;;;;;;;848.20;794.00;;;;;;;20.03;56.84;100123.97;321941;30;4745;-76
2022/09/07 00:40:10;;;;;;;850.27;796.10;;;;;;;20.03;56.63;100128.44;326051;30;3551;-76
2022/09/07 00:40:20;;;;;;;850.43;796.23;;;;;;;20.03;56.79;100123.13;329155;30;1291;-76
2022/09/07 00:40:31;;;;;;;846.70;792.28;;;;;;;20.03;56.85;100123.97;334144;29;2197;-76
2022/09/07 00:40:41;;;;;;;839.83;785.53;;;;;;;20.04;56.96;100124.81;332698;29;3331;-76
2022/09/07 00:40:52;;;;;;;841.55;787.40;;;;;;;20.01;56.56;100125.91;329030;30;1236;-76
2022/09/07 00:41:02;;;;;;;843.80;789.77;;;;;;;19.99;56.99;100119.84;328700;30;1257;-76
2022/09/07 00:41:13;;;;;;;851.83;797.70;;;;;;;19.99;56.60;100126.97;329775;29;1227;-76
2022/09/07 00:41:23;;;;;;;852.20;798.08;;;;;;;19.97;56.93;100135.03;331241;29;2235;-76
2022/09/07 00:41:34;;;;;;;846.50;792.63;;;;;;;19.93;57.18;100125.59;332820;29;740;-76
2022/09/07 00:41:44;;;;;;;843.75;789.85;;;;;;;19.94;57.00;100124.63;325159;30;2008;-76
2022/09/07 00:41:55;;;;;;;843.37;789.27;;;;;;;19.94;56.79;100129.94;323124;30;2569;-76
2022/09/07 00:42:05;;;;;;;844.22;789.92;;;;;;;19.91;57.07;100124.88;326778;30;1182;-76
2022/09/07 00:42:19;;;;;;;847.73;793.40;;;;;;;19.94;56.95;100129.94;326514;29;2674;-76
2022/09/07 00:42:30;;;;;;;851.42;797.20;;;;;;;19.93;57.03;100128.25;330618;29;2571;-76
2022/09/07 00:42:40;;;;;;;851.37;797.17;;;;;;;19.92;57.05;100127.44;331372;29;2800;-76
2022/09/07 00:42:51;;;;;;;848.35;794.15;;;;;;;19.90;56.96;100129.34;329116;29;1312;-76
2022/09/07 00:43:01;;;;;;;849.67;795.50;;;;;;;19.90;57.14;100128.50;327699;30;1793;-76
2022/09/07 00:43:31;;;;;;;849.55;795.25;;;;;;;19.91;56.80;100124.88;328238;30;1218;-76
2022/09/07 00:43:50;;;;;;;843.25;789.30;;;;;;;19.91;57.18;100124.88;320698;30;2631;-76
2022/09/07 00:44:37;;;;;;;847.92;793.78;;;;;;;19.94;57.14;100124.63;319246;30;3008;-76
2022/09/07 00:45:18;;;;;;;845.45;791.75;;;;;;;19.93;56.89;100123.78;317702;31;3457;-76
2022/09/07 00:45:29;;;;;;;844.95;791.40;;;;;;;19.96;56.76;100125.38;315615;31;2227;-76
2022/09/07 00:45:39;;;;;;;850.43;796.50;;;;;;;19.96;57.03;100128.03;314970;31;2927;-76
2022/09/07 00:45:50;;;;;;;853.50;798.85;;;;;;;19.95;57.22;100123.66;313733;31;1315;-76
2022/09/07 00:46:00;;;;;;;855.37;800.67;;;;;;;19.95;57.06;100123.66;308966;31;3744;-76
2022/09/07 00:46:22;;;;;;;851.30;796.65;;;;;;;19.96;57.05;100125.38;307507;31;4014;-76
2022/09/07 00:46:33;;;;;;;855.00;800.47;;;;;;;19.94;56.96;100119.31;311432;31;4782;-76
2022/09/07 00:46:44;;;;;;;859.77;805.33;;;;;;;19.94;57.31;100128.13;310709;31;4725;-76
2022/09/07 00:46:54;;;;;;;852.53;798.40;;;;;;;19.94;57.22;100121.97;310848;31;4538;-76
2022/09/07 00:47:11;;;;;;;848.15;794.22;;;;;;;19.95;57.12;100121.00;306259;32;1321;-76
2022/09/07 00:47:28;;;;;;;844.17;790.30;;;;;;;19.96;57.20;100122.72;306267;32;1246;-76
2022/09/07 00:48:17;;;;;;;838.40;784.65;;;;;;;20.00;57.09;100124.19;305580;32;3134;-76
2022/09/07 00:48:32;;;;;;;857.10;802.85;;;;;;;19.99;56.98;100127.81;300109;32;5622;-76
2022/09/07 00:49:07;;;;;;;849.85;795.63;;;;;;;19.97;57.17;100121.75;296308;33;6575;-76
2022/09/07 00:49:18;;;;;;;837.50;783.67;;;;;;;19.99;57.04;100127.81;296126;32;6461;-76
2022/09/07 00:49:29;;;;;;;841.10;786.78;;;;;;;19.98;57.28;100126.09;296064;33;6780;-76
2022/09/07 00:49:39;;;;;;;846.65;791.92;;;;;;;19.96;57.38;100128.03;291933;33;5303;-76
2022/09/07 00:49:52;;;;;;;850.47;795.90;;;;;;;19.95;57.30;100126.31;292302;33;5442;-76
2022/09/07 00:50:07;;;;;;;846.40;792.05;;;;;;;19.94;57.35;100119.31;290765;33;4924;-76
2022/09/07 00:50:39;;;;;;;843.38;789.00;;;;;;;19.96;57.19;100120.06;287875;34;5643;-76
2022/09/07 00:50:52;;;;;;;847.03;793.05;;;;;;;19.97;57.52;100128.88;287164;34;927;-76
2022/09/07 00:52:47;;;;;;;741.11;690.33;;;;;;;19.94;57.67;100127.28;2496284;27;20703;-75
2022/09/07 00:53:06;;;;;;;810.17;757.28;;;;;;;19.95;57.80;100126.31;351397;28;1313;-75
2022/09/07 00:53:23;;;;;;;804.72;751.75;;;;;;;19.94;57.92;100127.28;348771;28;1522;-75
2022/09/07 00:53:40;;;;;;;808.33;755.30;;;;;;;19.93;57.75;100130.91;346806;28;892;-75
2022/09/07 00:53:56;;;;;;;804.83;752.10;;;;;;;19.93;57.81;100133.56;347289;28;1311;-75
2022/09/07 00:54:09;;;;;;;802.95;750.05;;;;;;;19.93;58.11;100128.25;346039;28;973;-75
2022/09/07 00:54:30;;;;;;;814.80;761.70;;;;;;;19.93;57.97;100128.25;345049;28;1380;-75
2022/09/07 00:54:44;;;;;;;811.55;758.65;;;;;;;19.93;58.01;100133.56;347346;28;1788;-75
2022/09/07 00:54:57;;;;;;;802.25;749.47;;;;;;;19.92;58.27;100129.22;347348;28;839;-75
2022/09/07 00:55:10;;;;;;;806.30;753.30;;;;;;;19.91;58.04;100130.19;345604;28;868;-75
2022/09/07 00:55:20;;;;;;;809.78;756.58;;;;;;;19.91;58.37;100127.53;348797;28;1279;-75
2022/09/07 00:55:31;;;;;;;817.60;764.17;;;;;;;19.91;58.18;100128.38;350156;28;1180;-75
2022/09/07 00:55:42;;;;;;;818.72;765.25;;;;;;;19.91;58.23;100125.72;348668;28;1378;-75
2022/09/07 00:55:52;;;;;;;815.03;761.72;;;;;;;19.91;57.89;100131.03;346931;28;1198;-75
2022/09/07 00:56:03;;;;;;;811.47;758.23;;;;;;;19.91;57.88;100127.53;348841;28;788;-75
2022/09/07 00:56:13;;;;;;;820.10;766.53;;;;;;;19.91;58.11;100119.56;347594;28;974;-75
2022/09/07 00:56:25;;;;;;;824.80;771.13;;;;;;;19.92;58.02;100126.56;348492;28;820;-75
2022/09/07 00:56:37;;;;;;;831.97;778.20;;;;;;;19.93;57.85;100130.91;348499;28;1059;-75
2022/09/07 00:56:49;;;;;;;831.85;778.08;;;;;;;19.94;57.71;100124.63;347388;28;1262;-75
2022/09/07 00:56:59;;;;;;;833.25;779.22;;;;;;;19.94;57.63;100129.94;348604;28;1360;-75
2022/09/07 00:57:10;;;;;;;832.20;778.22;;;;;;;19.92;58.41;100126.56;346018;28;1020;-75
2022/09/07 00:57:20;;;;;;;831.00;777.17;;;;;;;19.93;57.67;100128.25;344728;28;992;-75
2022/09/07 00:57:31;;;;;;;824.20;770.70;;;;;;;19.92;57.88;100121.25;345831;28;1198;-75
2022/09/07 00:57:44;;;;;;;821.67;768.15;;;;;;;19.93;57.46;100128.25;344634;28;1391;-75
2022/09/07 00:57:54;;;;;;;822.97;769.65;;;;;;;19.91;57.69;100125.72;343273;28;1532;-75
2022/09/07 00:58:04;;;;;;;835.38;781.88;;;;;;;19.91;57.66;100125.72;343292;28;1229;-75
2022/09/07 00:58:15;;;;;;;839.37;785.73;;;;;;;19.93;57.74;100122.94;345799;28;1663;-75
2022/09/07 00:58:26;;;;;;;839.92;786.33;;;;;;;19.92;57.76;100129.22;341418;28;3668;-76
2022/09/07 00:58:36;;;;;;;841.90;788.20;;;;;;;19.91;57.96;100127.53;342124;28;2846;-76
2022/09/07 00:58:47;;;;;;;848.00;793.90;;;;;;;19.91;57.68;100127.53;345843;28;1880;-76
2022/09/07 00:58:57;;;;;;;852.00;797.67;;;;;;;19.90;57.66;100133.81;345344;28;3125;-76
2022/09/07 00:59:08;;;;;;;852.67;798.40;;;;;;;19.90;58.02;100124.03;343467;28;1350;-76